Time;durP1;ratioP1;P1;durP2;ratioP2;P2;SDS_P1;SDS_P2;PMS_P1;PMS_P2;Temp;Humidity;BMP_temperature;BMP_pressure;BME280_temperature;BME280_humidity;BME280_pressure;Samples;Min_cycle;Max_cycle;Signal;HPM_P1;HPM_P2
2021/03/03 00:01:51;;;;;;;33.33;16.70;;;;;;;1.02;100.00;102111.69;5076270;28;20028;-75
2021/03/03 00:04:16;;;;;;;31.67;15.35;;;;;;;1.02;100.00;102104.91;5076291;28;20035;-76
2021/03/03 00:06:42;;;;;;;34.40;17.50;;;;;;;0.93;100.00;102112.13;5120328;22;20092;-85
2021/03/03 00:09:07;;;;;;;29.55;15.82;;;;;;;0.87;100.00;102112.72;5118296;28;20044;-84
2021/03/03 00:11:32;;;;;;;29.08;15.55;;;;;;;0.89;100.00;102110.22;5101745;28;20470;-84
2021/03/03 00:13:58;;;;;;;29.92;15.50;;;;;;;0.86;100.00;102103.31;5101197;28;20080;-84
2021/03/03 00:16:23;;;;;;;31.55;17.25;;;;;;;0.79;100.00;102102.94;5120196;28;20024;-86
2021/03/03 00:18:48;;;;;;;36.65;18.30;;;;;;;0.73;100.00;102103.53;5101647;28;20047;-85
2021/03/03 00:21:14;;;;;;;35.38;18.17;;;;;;;0.75;100.00;102103.63;5120535;28;20024;-84
2021/03/03 00:23:40;;;;;;;34.38;16.63;;;;;;;0.69;100.00;102105.06;5101119;28;20022;-85
2021/03/03 00:26:05;;;;;;;33.08;17.27;;;;;;;0.66;100.00;102099.81;5119501;28;20027;-85
2021/03/03 00:28:33;;;;;;;34.83;17.17;;;;;;;0.65;100.00;102097.22;5101921;28;20464;-84
2021/03/03 00:31:01;;;;;;;30.80;16.25;;;;;;;0.76;100.00;102092.59;5102101;28;20023;-84
2021/03/03 00:33:26;;;;;;;32.33;16.60;;;;;;;0.72;100.00;102098.38;5120720;28;20498;-84
2021/03/03 00:35:52;;;;;;;34.08;16.25;;;;;;;0.68;100.00;102103.34;5102099;28;20031;-84
2021/03/03 00:38:17;;;;;;;31.80;16.02;;;;;;;0.75;100.00;102093.41;5120631;28;20051;-85
2021/03/03 00:40:42;;;;;;;36.33;17.08;;;;;;;0.69;100.00;102099.97;5120857;28;20035;-84
2021/03/03 00:43:08;;;;;;;33.05;17.63;;;;;;;0.61;100.00;102091.06;5103520;28;20020;-85
2021/03/03 00:45:33;;;;;;;35.50;17.58;;;;;;;0.59;100.00;102092.69;5103955;28;20137;-84
2021/03/03 00:47:58;;;;;;;35.30;17.92;;;;;;;0.60;100.00;102083.34;5121404;28;20020;-85
2021/03/03 00:50:24;;;;;;;34.47;17.88;;;;;;;0.61;100.00;102082.53;5103413;28;20031;-84
2021/03/03 00:52:49;;;;;;;38.28;17.58;;;;;;;0.59;100.00;102087.59;5105737;28;20091;-83
2021/03/03 00:55:15;;;;;;;34.65;17.10;;;;;;;0.56;100.00;102084.88;5105660;28;20027;-83
2021/03/03 00:57:40;;;;;;;42.13;19.00;;;;;;;0.51;100.00;102085.47;5103789;28;20028;-84
2021/03/03 01:00:07;;;;;;;32.70;17.73;;;;;;;0.51;100.00;102080.38;5104627;28;20309;-84
2021/03/03 01:02:32;;;;;;;34.33;15.95;;;;;;;0.60;100.00;102076.56;5087774;28;20023;-84
2021/03/03 01:04:57;;;;;;;37.17;17.75;;;;;;;0.53;100.00;102074.53;5104809;28;20077;-84
2021/03/03 01:07:23;;;;;;;34.60;17.10;;;;;;;0.48;100.00;102073.44;5124827;28;20066;-84
2021/03/03 01:09:48;;;;;;;38.55;17.98;;;;;;;0.51;100.00;102071.03;5131517;28;20468;-84
2021/03/03 01:12:13;;;;;;;40.03;19.80;;;;;;;0.42;100.00;102068.03;5114456;28;20026;-84
2021/03/03 01:14:39;;;;;;;35.92;17.75;;;;;;;0.36;100.00;102065.19;5114285;28;20045;-84
2021/03/03 01:17:04;;;;;;;38.92;17.88;;;;;;;0.33;100.00;102059.94;5113220;28;20508;-84
2021/03/03 01:19:29;;;;;;;36.05;18.52;;;;;;;0.31;100.00;102061.53;5113360;28;20077;-84
2021/03/03 01:21:54;;;;;;;31.17;16.58;;;;;;;0.36;100.00;102050.75;5113207;28;20553;-84
2021/03/03 01:24:20;;;;;;;40.28;17.85;;;;;;;0.31;100.00;102054.78;5113860;28;20023;-84
2021/03/03 01:26:45;;;;;;;36.20;17.55;;;;;;;0.35;100.00;102054.13;5132732;28;20028;-84
2021/03/03 01:29:10;;;;;;;35.47;18.10;;;;;;;0.34;100.00;102054.03;5131637;28;20023;-84
2021/03/03 01:31:36;;;;;;;36.72;18.27;;;;;;;0.19;100.00;102049.09;5113576;28;20095;-84
2021/03/03 01:34:01;;;;;;;36.38;17.33;;;;;;;0.17;100.00;102043.91;5132286;28;20087;-84
2021/03/03 01:36:27;;;;;;;35.40;17.00;;;;;;;0.22;100.00;102041.59;5113368;28;20027;-84
2021/03/03 01:38:52;;;;;;;37.95;18.10;;;;;;;0.19;100.00;102039.75;5113713;28;20072;-84
2021/03/03 01:41:17;;;;;;;40.15;18.63;;;;;;;0.09;100.00;102035.00;5129762;28;20037;-84
2021/03/03 01:43:42;;;;;;;38.17;18.23;;;;;;;0.19;100.00;102034.66;5111255;28;20020;-84
2021/03/03 01:46:08;;;;;;;38.22;17.50;;;;;;;0.16;100.00;102026.84;5112162;28;20036;-84
2021/03/03 01:48:33;;;;;;;34.83;17.30;;;;;;;0.12;100.00;102024.06;5112300;28;20023;-84
2021/03/03 01:50:58;;;;;;;37.35;18.38;;;;;;;0.08;100.00;102025.59;5112790;28;20019;-84
2021/03/03 01:53:24;;;;;;;37.47;17.23;;;;;;;0.01;100.00;102021.03;5130754;28;20475;-84
2021/03/03 01:55:49;;;;;;;38.50;16.75;;;;;;;-0.17;100.00;102009.94;5113441;28;20046;-84
2021/03/03 01:58:14;;;;;;;35.85;17.70;;;;;;;-0.16;100.00;102011.66;5112932;28;20388;-84
2021/03/03 02:00:40;;;;;;;38.88;18.77;;;;;;;0.01;100.00;102005.72;5112263;28;20047;-84
2021/03/03 02:03:06;;;;;;;38.78;17.13;;;;;;;-0.06;100.00;102011.34;5130755;28;20433;-84
2021/03/03 02:05:31;;;;;;;36.97;16.23;;;;;;;-0.21;100.00;102002.94;5112730;28;20045;-84
2021/03/03 02:08:20;;;;;;;38.63;18.08;;;;;;;-0.20;100.00;101997.91;5111192;28;20016;-84
2021/03/03 02:11:02;;;;;;;41.85;18.98;;;;;;;-0.23;100.00;101995.19;5121503;28;20028;-84
2021/03/03 02:14:01;;;;;;;42.20;20.17;;;;;;;-0.24;100.00;101991.78;5118853;28;20487;-84
2021/03/03 02:16:28;;;;;;;39.03;19.92;;;;;;;-0.27;100.00;101991.63;5083397;28;20494;-84
2021/03/03 02:18:54;;;;;;;41.92;19.17;;;;;;;-0.27;100.00;101983.97;5100177;28;20023;-84
2021/03/03 02:21:26;;;;;;;43.05;19.80;;;;;;;-0.45;100.00;101977.97;5100420;28;20023;-84
2021/03/03 02:24:18;;;;;;;42.42;20.40;;;;;;;-0.28;100.00;101969.50;5102577;28;20114;-84
2021/03/03 02:26:46;;;;;;;42.72;19.92;;;;;;;-0.08;100.00;101970.44;5102265;28;20028;-84
2021/03/03 02:29:30;;;;;;;46.20;19.05;;;;;;;-0.06;100.00;101971.41;5118602;28;20020;-84
2021/03/03 02:31:57;;;;;;;43.53;18.88;;;;;;;-0.14;100.00;101976.94;5118432;28;20023;-84
2021/03/03 02:34:26;;;;;;;43.65;19.50;;;;;;;-0.19;100.00;101963.94;5118671;28;20038;-84
2021/03/03 02:36:52;;;;;;;44.80;19.20;;;;;;;-0.17;100.00;101970.00;5099577;28;20475;-85
2021/03/03 02:39:22;;;;;;;41.53;19.58;;;;;;;-0.14;100.00;101964.19;5099117;28;20027;-85
2021/03/03 02:41:48;;;;;;;44.40;19.48;;;;;;;-0.12;100.00;101960.03;5099233;28;20031;-84
2021/03/03 02:44:14;;;;;;;41.45;19.88;;;;;;;-0.08;100.00;101954.28;5100263;28;20098;-83
2021/03/03 02:46:44;;;;;;;43.45;19.20;;;;;;;-0.16;100.00;101946.25;5123793;28;20028;-84
2021/03/03 02:49:10;;;;;;;45.42;19.90;;;;;;;-0.22;100.00;101955.28;5101332;28;20012;-84
2021/03/03 02:51:35;;;;;;;45.47;20.52;;;;;;;-0.25;100.00;101946.69;5099764;28;20110;-84
2021/03/03 02:54:01;;;;;;;50.35;20.60;;;;;;;-0.22;100.00;101939.97;5118348;28;20055;-84
2021/03/03 02:56:28;;;;;;;50.13;20.83;;;;;;;-0.28;100.00;101938.91;5099356;28;20027;-84
2021/03/03 02:58:53;;;;;;;43.35;20.33;;;;;;;-0.31;100.00;101933.66;5100004;28;20471;-84
2021/03/03 03:01:20;;;;;;;42.80;18.98;;;;;;;-0.51;100.00;101916.53;5117282;28;20027;-84
2021/03/03 03:03:51;;;;;;;41.17;18.90;;;;;;;-0.59;100.00;101920.34;5116506;28;20475;-84
2021/03/03 03:06:25;;;;;;;38.13;17.30;;;;;;;-0.71;100.00;101915.53;5115984;28;20058;-84
2021/03/03 03:08:58;;;;;;;;;;;;;;;-0.70;100.00;101914.75;5098348;28;20053;-84
2021/03/03 03:11:26;;;;;;;41.85;18.20;;;;;;;-0.61;100.00;101919.44;5115973;28;19907;-84
2021/03/03 03:13:54;;;;;;;41.40;20.05;;;;;;;-0.57;100.00;101919.63;5097869;28;20024;-84
2021/03/03 03:16:21;;;;;;;46.65;21.05;;;;;;;-0.53;100.00;101915.56;5098123;28;20023;-84
2021/03/03 03:18:50;;;;;;;41.72;19.80;;;;;;;-0.32;100.00;101913.19;5098295;28;20463;-84
2021/03/03 03:21:16;;;;;;;50.10;22.02;;;;;;;-0.30;100.00;101909.03;5098331;28;20501;-84
2021/03/03 03:23:45;;;;;;;50.70;22.75;;;;;;;-0.31;100.00;101909.81;5097410;28;20023;-84
2021/03/03 03:26:11;;;;;;;51.67;21.60;;;;;;;-0.29;100.00;101904.00;5098410;28;20030;-84
2021/03/03 03:28:40;;;;;;;48.03;20.25;;;;;;;-0.38;100.00;101906.09;5098030;28;20016;-84
2021/03/03 03:31:09;;;;;;;46.88;20.17;;;;;;;-0.40;100.00;101894.09;5098429;28;20046;-84
2021/03/03 03:33:36;;;;;;;38.25;17.13;;;;;;;-0.51;100.00;101896.13;5115806;28;20020;-84
2021/03/03 03:36:03;;;;;;;38.75;17.17;;;;;;;-0.53;100.00;101898.59;5115773;28;20107;-84
2021/03/03 03:38:29;;;;;;;43.80;21.02;;;;;;;-0.54;100.00;101901.94;5097028;28;20096;-84
2021/03/03 03:40:55;;;;;;;41.85;18.88;;;;;;;-0.62;100.00;101902.38;5096888;28;20122;-84
2021/03/03 03:43:22;;;;;;;44.58;19.00;;;;;;;-0.54;100.00;101907.03;5096886;28;20444;-84
2021/03/03 03:45:48;;;;;;;41.33;18.27;;;;;;;-0.57;100.00;101911.13;5097000;28;20047;-85
2021/03/03 03:48:16;;;;;;;49.67;20.90;;;;;;;-0.47;100.00;101908.22;5115515;28;20058;-84
2021/03/03 03:50:42;;;;;;;59.25;21.60;;;;;;;-0.32;100.00;101908.94;5097151;28;20084;-84
2021/03/03 03:53:08;;;;;;;51.53;21.08;;;;;;;-0.19;100.00;101905.31;5098144;28;20024;-84
2021/03/03 03:55:34;;;;;;;48.95;21.15;;;;;;;-0.34;100.00;101902.03;5097689;28;20491;-84
2021/03/03 03:58:00;;;;;;;47.45;20.45;;;;;;;-0.34;100.00;101908.03;5115324;28;20027;-84
2021/03/03 04:00:27;;;;;;;48.28;20.42;;;;;;;-0.42;100.00;101911.00;5097396;28;20024;-84
2021/03/03 04:02:52;;;;;;;45.63;20.10;;;;;;;-0.41;100.00;101911.06;5097256;28;20019;-84
2021/03/03 04:05:18;;;;;;;39.42;20.02;;;;;;;-0.56;100.00;101905.22;5097411;28;20024;-84
2021/03/03 04:07:44;;;;;;;37.90;18.13;;;;;;;-0.70;100.00;101902.00;5114729;28;20032;-85
2021/03/03 04:10:12;;;;;;;40.10;17.95;;;;;;;-0.81;100.00;101898.03;5096999;28;20057;-84
2021/03/03 04:12:37;;;;;;;45.65;20.45;;;;;;;-0.87;100.00;101898.63;5096605;28;20027;-84
2021/03/03 04:15:04;;;;;;;40.33;19.17;;;;;;;-0.95;100.00;101905.88;5096493;28;20057;-84
2021/03/03 04:17:30;;;;;;;42.92;18.20;;;;;;;-0.75;100.00;101909.41;5096810;28;20034;-84
2021/03/03 04:19:55;;;;;;;38.15;16.65;;;;;;;-1.00;100.00;101903.91;5096450;28;20024;-84
2021/03/03 04:22:20;;;;;;;37.75;18.15;;;;;;;-1.10;100.00;101910.22;5114713;28;20035;-84
2021/03/03 04:24:46;;;;;;;43.05;19.30;;;;;;;-1.01;100.00;101909.81;5095832;28;20020;-84
2021/03/03 04:27:11;;;;;;;48.53;19.35;;;;;;;-0.82;100.00;101903.94;5096122;28;20020;-85
2021/03/03 04:29:36;;;;;;;45.75;19.83;;;;;;;-0.83;100.00;101908.19;5114977;28;20024;-84
2021/03/03 04:32:01;;;;;;;48.15;19.40;;;;;;;-0.77;100.00;101910.13;5114329;28;20023;-84
2021/03/03 04:34:27;;;;;;;41.70;18.65;;;;;;;-0.80;100.00;101917.63;5114526;28;20547;-84
2021/03/03 04:36:52;;;;;;;45.15;19.65;;;;;;;-0.79;100.00;101910.06;5096173;28;20041;-85
2021/03/03 04:39:17;;;;;;;45.45;20.48;;;;;;;-0.82;100.00;101907.38;5096332;28;20111;-85
2021/03/03 04:41:42;;;;;;;44.50;18.90;;;;;;;-0.85;100.00;101902.13;5095757;28;20365;-84
2021/03/03 04:44:08;;;;;;;40.58;18.80;;;;;;;-0.85;100.00;101906.34;5096089;28;20017;-85
2021/03/03 04:46:33;;;;;;;44.20;19.00;;;;;;;-0.95;100.00;101902.47;5095757;28;20019;-85
2021/03/03 04:48:58;;;;;;;44.40;18.88;;;;;;;-0.95;100.00;101893.16;5113750;28;20062;-85
2021/03/03 04:51:24;;;;;;;44.22;19.90;;;;;;;-0.95;100.00;101899.94;5096257;28;20123;-85
2021/03/03 04:53:49;;;;;;;42.50;18.55;;;;;;;-0.94;100.00;101894.88;5099898;28;20483;-85
2021/03/03 04:56:14;;;;;;;40.75;19.15;;;;;;;-0.95;100.00;101902.47;5118337;28;20502;-84
2021/03/03 04:58:39;;;;;;;57.05;21.35;;;;;;;-0.99;100.00;101895.47;5100429;28;20023;-84
2021/03/03 05:01:05;;;;;;;48.95;20.65;;;;;;;-1.04;100.00;101900.34;5100323;28;20416;-84
2021/03/03 05:03:30;;;;;;;46.55;20.55;;;;;;;-0.97;100.00;101893.88;5101064;28;20019;-84
2021/03/03 05:05:55;;;;;;;43.38;20.13;;;;;;;-1.03;100.00;101902.06;5099760;28;20483;-85
2021/03/03 05:08:20;;;;;;;42.60;17.92;;;;;;;-1.10;100.00;101894.94;5117824;28;20103;-85
2021/03/03 05:10:46;;;;;;;42.67;19.05;;;;;;;-1.22;100.00;101897.72;5118208;28;20375;-84
2021/03/03 05:13:17;;;;;;;50.33;20.95;;;;;;;-1.16;100.00;101890.41;5099630;28;20027;-84
2021/03/03 05:15:42;;;;;;;47.75;20.33;;;;;;;-1.14;100.00;101894.69;5099501;28;20027;-85
2021/03/03 05:18:09;;;;;;;49.38;20.80;;;;;;;-1.04;100.00;101890.16;5098996;28;20034;-85
2021/03/03 05:20:35;;;;;;;51.95;20.20;;;;;;;-1.09;100.00;101889.03;5117139;28;20062;-85
2021/03/03 05:23:00;;;;;;;45.55;19.20;;;;;;;-1.08;100.00;101895.84;5117551;28;20019;-84
2021/03/03 05:25:25;;;;;;;47.08;20.73;;;;;;;-1.12;100.00;101888.00;5099545;28;20421;-84
2021/03/03 05:27:50;;;;;;;59.45;21.23;;;;;;;-1.19;100.00;101880.06;5098946;28;20098;-85
2021/03/03 05:30:16;;;;;;;52.85;21.33;;;;;;;-1.18;100.00;101876.72;5117766;28;20539;-84
2021/03/03 05:32:42;;;;;;;51.05;20.52;;;;;;;-1.19;100.00;101869.88;5099140;28;20027;-85
2021/03/03 05:35:08;;;;;;;48.47;20.20;;;;;;;-1.21;100.00;101874.00;5098703;28;20372;-84
2021/03/03 05:37:33;;;;;;;47.58;19.33;;;;;;;-1.23;100.00;101867.97;5098978;28;20071;-85
2021/03/03 05:39:58;;;;;;;46.10;18.25;;;;;;;-1.33;100.00;101870.84;5117017;28;20063;-84
2021/03/03 05:42:24;;;;;;;44.28;19.42;;;;;;;-1.41;100.00;101864.50;5099007;28;20020;-84
2021/03/03 05:44:50;;;;;;;43.92;19.05;;;;;;;-1.43;100.00;101864.41;5098775;28;20024;-84
2021/03/03 05:47:20;;;;;;;50.22;19.73;;;;;;;-1.37;100.00;101861.31;5098771;28;20440;-85
2021/03/03 05:49:47;;;;;;;56.97;20.65;;;;;;;-1.32;100.00;101859.88;5098779;28;20098;-85
2021/03/03 05:52:17;;;;;;;48.60;18.55;;;;;;;-1.31;100.00;101864.16;5098697;28;20102;-84
2021/03/03 05:54:45;;;;;;;48.15;19.27;;;;;;;-1.43;100.00;101856.78;5099300;28;20015;-84
2021/03/03 05:57:11;;;;;;;44.15;18.77;;;;;;;-1.48;100.00;101857.31;5104612;28;20019;-83
2021/03/03 05:59:37;;;;;;;42.80;19.20;;;;;;;-1.41;100.00;101865.38;5099530;28;20046;-84
2021/03/03 06:02:03;;;;;;;45.53;19.40;;;;;;;-1.35;100.00;101864.81;5098450;28;20024;-84
2021/03/03 06:04:28;;;;;;;46.17;19.13;;;;;;;-1.27;100.00;101858.41;5098373;28;20398;-84
2021/03/03 06:06:56;;;;;;;48.53;18.25;;;;;;;-1.24;100.00;101861.13;5098830;28;20114;-85
2021/03/03 06:09:24;;;;;;;51.97;19.42;;;;;;;-1.32;100.00;101861.56;5098383;28;20032;-85
2021/03/03 06:11:55;;;;;;;56.33;20.52;;;;;;;-1.37;100.00;101855.34;5098358;28;20023;-84
2021/03/03 06:14:24;;;;;;;49.75;19.45;;;;;;;-1.34;100.00;101855.50;5098588;28;20015;-84
2021/03/03 06:17:11;;;;;;;44.85;18.08;;;;;;;-1.36;100.00;101859.63;5099151;28;20020;-85
2021/03/03 06:19:55;;;;;;;38.20;18.08;;;;;;;-1.46;100.00;101859.16;5097706;28;20038;-84
2021/03/03 06:22:31;;;;;;;43.88;17.85;;;;;;;-1.43;100.00;101858.44;5098754;28;20467;-84
2021/03/03 06:25:21;;;;;;;44.95;18.35;;;;;;;-1.31;100.00;101860.75;5116818;28;20031;-84
2021/03/03 06:31:55;;;;;;;43.00;17.50;;;;;;;-1.24;100.00;101856.03;5116685;28;20038;-84
2021/03/03 06:35:07;;;;;;;41.47;17.65;;;;;;;-0.90;100.00;101855.16;5098932;28;20110;-84
2021/03/03 06:38:20;;;;;;;38.72;17.17;;;;;;;-0.89;100.00;101845.84;5019669;28;20087;-85
2021/03/03 06:41:07;;;;;;;35.83;15.90;;;;;;;-0.83;100.00;101852.16;5094633;28;20036;-84
2021/03/03 06:44:05;;;;;;;40.78;17.58;;;;;;;-0.45;100.00;101847.13;5073485;28;20021;-84
2021/03/03 06:49:48;;;;;;;;;;;;;;;;;;;;;
2021/03/03 06:56:25;;;;;;;37.97;18.98;;;;;;;0.45;96.49;101831.69;5116690;28;20513;-84
2021/03/03 06:59:24;;;;;;;35.10;17.50;;;;;;;0.86;95.45;101832.59;5061524;28;20042;-85
2021/03/03 07:01:52;;;;;;;34.67;16.70;;;;;;;1.17;93.14;101835.50;5097962;28;20115;-84
2021/03/03 07:04:22;;;;;;;32.83;16.92;;;;;;;1.58;92.00;101829.50;5097433;28;20126;-84
2021/03/03 07:07:18;;;;;;;32.30;15.98;;;;;;;1.52;91.82;101829.28;5134157;27;20718;-82
2021/03/03 07:09:46;;;;;;;32.83;16.70;;;;;;;1.44;91.74;101834.06;5135453;28;20035;-82
2021/03/03 07:12:14;;;;;;;36.10;17.73;;;;;;;1.91;90.51;101836.72;5139111;28;20114;-81
2021/03/03 07:14:40;;;;;;;33.53;16.85;;;;;;;2.02;89.87;101833.75;5135365;27;20054;-82
2021/03/03 07:17:10;;;;;;;32.13;17.50;;;;;;;2.05;90.21;101828.75;5133987;28;20118;-82
2021/03/03 07:19:47;;;;;;;29.40;16.90;;;;;;;2.30;89.12;101834.75;5134201;28;20034;-84
2021/03/03 07:22:31;;;;;;;31.70;16.95;;;;;;;2.47;87.57;101836.25;5134735;27;20091;-83
2021/03/03 07:25:10;;;;;;;32.38;17.00;;;;;;;2.89;87.20;101833.38;5133458;28;20551;-82
2021/03/03 07:27:37;;;;;;;29.45;17.17;;;;;;;2.93;86.90;101836.97;5134188;28;20035;-81
2021/03/03 07:30:09;;;;;;;28.10;16.00;;;;;;;3.15;86.02;101834.28;5135125;28;20024;-82
2021/03/03 07:32:35;;;;;;;29.67;15.10;;;;;;;3.32;85.97;101832.22;5133945;27;20483;-82
2021/03/03 07:35:01;;;;;;;30.90;15.95;;;;;;;3.31;85.60;101834.75;5133746;28;20068;-82
2021/03/03 07:37:34;;;;;;;33.50;16.55;;;;;;;3.47;85.79;101827.59;5133828;28;20019;-82
2021/03/03 07:40:05;;;;;;;27.63;16.00;;;;;;;3.81;83.84;101823.47;5133955;28;20027;-81
2021/03/03 07:42:32;;;;;;;29.90;15.73;;;;;;;4.02;82.65;101817.25;5133240;28;20027;-82
2021/03/03 07:45:00;;;;;;;30.20;17.10;;;;;;;4.29;80.98;101818.03;5134356;27;20103;-82
2021/03/03 07:47:29;;;;;;;32.20;15.73;;;;;;;4.60;80.17;101824.00;5135530;28;20042;-83
2021/03/03 07:49:59;;;;;;;27.95;15.55;;;;;;;4.67;80.20;101813.03;5130976;28;20110;-84
2021/03/03 07:52:25;;;;;;;27.58;15.55;;;;;;;4.85;81.18;101813.53;5131830;28;20064;-84
2021/03/03 07:54:50;;;;;;;28.95;15.68;;;;;;;5.25;80.28;101808.50;5131532;28;20019;-84
2021/03/03 07:57:16;;;;;;;28.08;16.38;;;;;;;5.80;77.70;101804.59;5130809;28;20059;-84
2021/03/03 07:59:43;;;;;;;26.75;15.77;;;;;;;5.97;76.99;101797.25;5130968;28;20114;-84
2021/03/03 08:02:09;;;;;;;27.58;16.95;;;;;;;6.18;78.12;101807.97;5131807;27;20110;-84
2021/03/03 08:04:39;;;;;;;25.40;15.13;;;;;;;6.35;76.53;101794.56;5131631;27;20041;-84
2021/03/03 08:07:21;;;;;;;30.50;16.00;;;;;;;6.08;77.66;101800.91;5131270;27;20047;-85
2021/03/03 08:10:05;;;;;;;27.80;16.02;;;;;;;6.30;77.96;101801.34;5129990;28;20498;-84
2021/03/03 08:12:31;;;;;;;30.33;16.37;;;;;;;6.66;75.77;101803.75;5130401;28;20516;-84
2021/03/03 08:14:57;;;;;;;27.88;16.63;;;;;;;6.76;76.02;101797.03;5130534;28;20266;-85
2021/03/03 08:17:26;;;;;;;31.58;17.67;;;;;;;7.16;76.47;101793.41;5122992;27;20471;-85
2021/03/03 08:19:58;;;;;;;32.10;15.75;;;;;;;7.25;75.08;101803.00;5117890;28;20027;-84
2021/03/03 08:22:47;;;;;;;34.13;17.35;;;;;;;7.76;75.29;101796.84;5117714;27;20015;-84
2021/03/03 08:25:43;;;;;;;25.42;14.10;;;;;;;8.03;73.70;101792.00;5107082;28;20125;-84
2021/03/03 08:28:27;;;;;;;;;;;;;;;8.18;72.86;101786.16;5116870;28;20035;-84
2021/03/03 08:31:07;;;;;;;29.55;15.25;;;;;;;8.71;71.87;101779.84;5118206;28;19914;-85
2021/03/03 08:33:33;;;;;;;25.15;13.75;;;;;;;8.54;71.99;101774.53;5116441;28;20055;-85
2021/03/03 08:35:59;;;;;;;27.42;14.90;;;;;;;9.15;69.66;101771.59;5116692;28;20016;-86
2021/03/03 08:38:24;;;;;;;26.63;15.00;;;;;;;9.67;67.55;101771.91;5116263;28;20027;-86
2021/03/03 08:40:50;;;;;;;23.35;15.00;;;;;;;9.39;68.54;101776.94;5116356;28;20020;-86
2021/03/03 08:43:37;;;;;;;28.23;15.05;;;;;;;9.55;68.16;101764.94;5126134;28;20023;-84
2021/03/03 08:46:21;;;;;;;24.73;15.00;;;;;;;10.34;67.62;101763.50;5130766;28;20096;-84
2021/03/03 08:49:06;;;;;;;21.13;13.30;;;;;;;10.17;65.36;101760.88;5117061;28;20062;-85
2021/03/03 08:51:36;;;;;;;24.23;13.90;;;;;;;10.35;64.95;101762.69;5116358;28;20030;-85
2021/03/03 08:54:12;;;;;;;22.33;13.98;;;;;;;10.17;66.42;101760.88;5116830;28;20023;-86
2021/03/03 08:56:42;;;;;;;23.55;13.80;;;;;;;10.54;66.16;101756.66;5117429;28;20547;-86
2021/03/03 08:59:14;;;;;;;23.45;12.88;;;;;;;11.15;63.89;101760.97;5117851;28;20020;-86
2021/03/03 09:02:02;;;;;;;23.90;12.95;;;;;;;11.47;61.77;101747.91;5118160;28;20451;-86
2021/03/03 09:04:30;;;;;;;24.85;12.30;;;;;;;11.38;61.06;101754.88;5117131;28;20073;-86
2021/03/03 09:07:06;;;;;;;26.27;13.35;;;;;;;11.40;61.44;101750.53;5117748;28;20027;-86
2021/03/03 09:09:41;;;;;;;20.85;13.02;;;;;;;11.94;59.38;101740.84;5116511;28;20053;-86
2021/03/03 09:12:09;;;;;;;19.30;11.73;;;;;;;11.93;57.75;101732.16;5117760;28;20045;-86
2021/03/03 09:14:36;;;;;;;19.75;12.20;;;;;;;12.34;57.92;101730.19;5116250;28;20059;-84
2021/03/03 09:17:07;;;;;;;19.75;12.45;;;;;;;12.98;56.31;101729.69;5115534;28;20020;-84
2021/03/03 09:19:34;;;;;;;20.77;11.90;;;;;;;13.00;57.16;101725.34;5116445;28;20055;-85
2021/03/03 09:22:00;;;;;;;23.30;11.15;;;;;;;12.67;55.69;101722.16;5115748;28;20030;-85
2021/03/03 09:24:25;;;;;;;19.83;11.98;;;;;;;12.65;54.03;101723.91;5116515;28;20106;-85
2021/03/03 09:27:05;;;;;;;19.30;11.43;;;;;;;12.63;54.79;101720.44;5116747;28;20096;-87
2021/03/03 09:29:32;;;;;;;22.55;11.35;;;;;;;13.73;52.14;101713.28;5117306;28;20020;-87
2021/03/03 09:31:58;;;;;;;17.65;11.63;;;;;;;13.77;51.61;101711.50;5129779;28;20000;-87
2021/03/03 09:34:24;;;;;;;18.17;10.88;;;;;;;13.60;51.39;101706.47;5139829;28;20019;-86
2021/03/03 10:02:47;;;;;;;16.73;9.75;;;;;;;15.58;43.61;101693.66;5014763;28;20058;-85
2021/03/03 10:05:29;;;;;;;16.25;10.20;;;;;;;15.62;42.35;101694.47;5014591;28;20030;-84
2021/03/03 10:07:58;;;;;;;17.67;9.95;;;;;;;15.77;40.90;101688.94;5031466;28;20029;-84
2021/03/03 10:39:12;;;;;;;23.50;12.63;;;;;;;15.61;40.89;101680.53;5093257;22;20082;-84
2021/03/03 10:41:43;;;;;;;19.67;12.20;;;;;;;16.06;40.30;101682.19;5074095;28;20036;-85
2021/03/03 10:44:08;;;;;;;22.42;12.45;;;;;;;15.62;40.69;101687.47;5074042;28;20024;-84
2021/03/03 10:46:46;;;;;;;20.10;11.93;;;;;;;16.09;39.66;101682.09;5074547;28;20027;-85
2021/03/03 10:49:14;;;;;;;22.33;11.60;;;;;;;15.51;40.91;101675.50;5053256;28;20034;-85
2021/03/03 10:52:23;;;;;;;22.17;12.43;;;;;;;15.71;40.75;101676.00;5054563;28;20028;-85
2021/03/03 10:54:48;;;;;;;20.65;12.00;;;;;;;16.14;41.14;101672.41;5028007;28;20040;-84
2021/03/03 10:57:14;;;;;;;19.98;11.80;;;;;;;16.39;40.28;101669.19;5053783;28;20396;-83
2021/03/03 11:00:20;;;;;;;23.58;12.52;;;;;;;16.14;40.60;101674.16;5054777;28;20057;-83
2021/03/03 11:03:10;;;;;;;22.05;12.00;;;;;;;16.09;39.88;101666.41;5054696;28;20040;-83
2021/03/03 11:05:35;;;;;;;21.17;12.63;;;;;;;16.01;40.67;101663.09;5058709;28;20021;-83
2021/03/03 11:08:01;;;;;;;24.20;12.77;;;;;;;16.01;39.57;101657.88;5057819;28;20029;-82
2021/03/03 11:10:26;;;;;;;26.27;13.27;;;;;;;15.60;40.10;101652.63;5059144;28;20053;-82
2021/03/03 11:12:51;;;;;;;24.23;12.40;;;;;;;16.12;38.71;101650.63;5058238;28;20021;-82
2021/03/03 11:15:17;;;;;;;25.10;13.20;;;;;;;16.42;39.16;101640.31;5058522;28;20420;-82
2021/03/03 11:17:44;;;;;;;20.63;12.68;;;;;;;16.26;40.55;101645.09;5057702;28;20024;-83
2021/03/03 11:20:10;;;;;;;26.33;13.98;;;;;;;15.78;40.96;101646.19;5058293;28;20048;-82
2021/03/03 11:22:35;;;;;;;23.38;13.60;;;;;;;16.25;39.98;101641.56;5057742;28;20370;-82
2021/03/03 11:25:02;;;;;;;25.98;13.48;;;;;;;16.56;40.04;101648.66;5059217;28;20052;-82
2021/03/03 11:27:28;;;;;;;23.67;13.52;;;;;;;16.61;40.75;101638.94;5059673;28;20029;-82
2021/03/03 11:29:54;;;;;;;22.80;13.30;;;;;;;16.17;40.29;101635.69;5058185;28;20110;-82
2021/03/03 11:32:19;;;;;;;23.98;12.73;;;;;;;16.02;41.68;101636.06;5057957;28;20525;-82
2021/03/03 11:34:44;;;;;;;27.02;14.38;;;;;;;15.52;42.05;101630.19;5058256;28;20028;-82
2021/03/03 11:37:09;;;;;;;22.70;13.45;;;;;;;14.45;43.52;101633.94;5057837;28;20029;-82
2021/03/03 11:39:35;;;;;;;25.70;14.40;;;;;;;13.40;45.31;101636.34;5058544;28;20123;-82
2021/03/03 11:42:00;;;;;;;21.83;13.23;;;;;;;13.16;46.56;101623.59;5058553;28;20370;-82
2021/03/03 11:44:25;;;;;;;27.55;14.60;;;;;;;13.12;47.39;101626.25;5058241;28;20021;-82
2021/03/03 11:46:50;;;;;;;25.58;14.93;;;;;;;13.62;46.31;101631.72;5057956;28;20118;-83
2021/03/03 11:49:16;;;;;;;25.17;12.98;;;;;;;14.10;45.77;101625.78;5057417;28;20036;-82
2021/03/03 11:51:41;;;;;;;24.88;14.13;;;;;;;14.92;44.64;101619.16;5057444;28;20123;-82
2021/03/03 11:54:06;;;;;;;24.60;14.07;;;;;;;14.78;44.62;101610.75;5061752;28;20361;-82
2021/03/03 11:56:31;;;;;;;23.63;14.07;;;;;;;14.63;44.76;101604.06;5062058;28;20100;-82
2021/03/03 11:58:57;;;;;;;24.13;14.60;;;;;;;14.84;44.47;101601.91;5060525;28;20166;-82
2021/03/03 12:01:22;;;;;;;24.33;13.73;;;;;;;14.95;44.92;101589.53;5060522;28;20025;-82
2021/03/03 12:03:47;;;;;;;22.17;12.95;;;;;;;15.52;42.61;101586.59;5061307;28;20385;-82
2021/03/03 12:06:13;;;;;;;27.80;14.18;;;;;;;15.87;42.64;101577.94;5061178;28;20017;-82
2021/03/03 12:08:38;;;;;;;25.85;14.50;;;;;;;15.92;42.53;101582.19;5061353;28;20041;-82
2021/03/03 12:11:03;;;;;;;24.42;14.05;;;;;;;16.02;41.43;101578.47;5076341;28;20546;-82
2021/03/03 12:13:28;;;;;;;30.65;15.07;;;;;;;15.62;42.42;101569.78;5060037;28;20481;-82
2021/03/03 12:15:54;;;;;;;24.95;14.65;;;;;;;15.87;42.47;101567.47;5081568;28;20086;-83
2021/03/03 12:18:19;;;;;;;25.63;15.30;;;;;;;15.70;43.48;101561.81;5065738;28;20025;-84
2021/03/03 12:20:44;;;;;;;23.40;13.73;;;;;;;14.85;45.15;101557.50;5067580;28;20040;-83
2021/03/03 12:23:10;;;;;;;25.80;13.50;;;;;;;14.77;45.85;101559.38;5085042;28;20131;-82
2021/03/03 12:25:35;;;;;;;28.33;14.05;;;;;;;15.01;44.67;101554.56;5066795;28;20025;-83